createdAt,value
2018-04-11T00:00:05.237Z,12.30
2018-04-11T00:01:05.555Z,12.30
2018-04-11T00:02:04.638Z,12.30
2018-04-11T00:03:05.642Z,12.30
2018-04-11T00:04:05.435Z,12.30
2018-04-11T00:05:04.981Z,12.30
2018-04-11T00:06:05.152Z,12.30
2018-04-11T00:07:04.896Z,12.20
2018-04-11T00:08:05.496Z,12.20
2018-04-11T00:09:05.525Z,12.20
2018-04-11T00:10:04.687Z,12.20
2018-04-11T00:11:05.306Z,12.20
2018-04-11T00:12:05.042Z,12.20
2018-04-11T00:13:04.670Z,12.20
2018-04-11T00:14:04.973Z,12.10
2018-04-11T00:15:05.596Z,12.10
2018-04-11T00:16:05.484Z,12.10
2018-04-11T00:17:05.567Z,12.20
2018-04-11T00:18:05.225Z,12.10
2018-04-11T00:19:05.012Z,12.10
2018-04-11T00:20:05.412Z,12.10
2018-04-11T00:21:05.190Z,12.10
2018-04-11T00:22:05.228Z,12.20
2018-04-11T00:23:05.296Z,12.20
2018-04-11T00:24:05.339Z,12.10
2018-04-11T00:25:05.353Z,12.10
2018-04-11T00:26:05.166Z,12.10
2018-04-11T00:27:06.469Z,12.10
2018-04-11T00:28:05.662Z,12.10
2018-04-11T00:29:10.052Z,12.10
2018-04-11T00:30:05.014Z,12.10
2018-04-11T00:31:05.008Z,12.10
2018-04-11T00:32:04.969Z,12.10
2018-04-11T00:33:05.389Z,12.00
2018-04-11T00:34:05.593Z,12.00
2018-04-11T00:35:05.381Z,12.00
2018-04-11T00:36:04.721Z,11.90
2018-04-11T00:37:05.617Z,11.90
2018-04-11T00:38:05.697Z,11.90
2018-04-11T00:39:04.670Z,11.80
2018-04-11T00:40:05.093Z,11.80
2018-04-11T00:41:05.119Z,11.80
2018-04-11T00:42:04.676Z,11.80
2018-04-11T00:43:04.772Z,11.70
2018-04-11T00:44:04.806Z,11.70
2018-04-11T00:45:04.677Z,11.70
2018-04-11T00:46:04.858Z,11.70
2018-04-11T00:47:05.287Z,11.60
2018-04-11T00:48:05.484Z,11.60
2018-04-11T00:49:04.947Z,11.60
2018-04-11T00:50:05.703Z,11.60
2018-04-11T00:51:05.497Z,11.60
2018-04-11T00:52:05.266Z,11.60
2018-04-11T00:53:04.661Z,11.60
2018-04-11T00:54:05.254Z,11.60
2018-04-11T00:55:04.862Z,11.60
2018-04-11T00:56:05.380Z,11.60
2018-04-11T00:57:04.795Z,11.60
2018-04-11T00:58:05.597Z,11.60
2018-04-11T00:59:04.729Z,11.60
2018-04-11T01:00:05.393Z,11.60
2018-04-11T01:01:04.731Z,11.60
2018-04-11T01:02:04.693Z,11.60
2018-04-11T01:03:05.542Z,11.60
2018-04-11T01:04:10.242Z,11.60
2018-04-11T01:05:05.151Z,11.60
2018-04-11T01:06:05.233Z,11.60
2018-04-11T01:07:04.632Z,11.60
2018-04-11T01:08:05.065Z,11.60
2018-04-11T01:09:05.138Z,11.60
2018-04-11T01:10:09.746Z,11.60
2018-04-11T01:11:05.482Z,11.60
2018-04-11T01:12:05.059Z,11.60
2018-04-11T01:13:04.670Z,11.60
2018-04-11T01:14:05.321Z,11.60
2018-04-11T01:15:05.108Z,11.60
2018-04-11T01:16:05.372Z,11.60
2018-04-11T01:17:04.749Z,11.60
2018-04-11T01:18:04.809Z,11.60
2018-04-11T01:19:05.390Z,11.60
2018-04-11T01:20:04.735Z,11.60
2018-04-11T01:21:05.652Z,11.60
2018-04-11T01:22:05.374Z,11.60
2018-04-11T01:23:05.162Z,11.60
2018-04-11T01:24:05.496Z,11.50
2018-04-11T01:25:04.919Z,11.50
2018-04-11T01:26:05.586Z,11.50
2018-04-11T01:27:04.712Z,11.50
2018-04-11T01:28:05.505Z,11.50
2018-04-11T01:29:04.870Z,11.40
2018-04-11T01:30:05.525Z,11.40
2018-04-11T01:31:05.605Z,11.40
2018-04-11T01:32:04.895Z,11.40
2018-04-11T01:33:05.574Z,11.30
2018-04-11T01:34:05.165Z,11.30
2018-04-11T01:35:04.944Z,11.20
2018-04-11T01:36:05.435Z,11.20
2018-04-11T01:37:05.463Z,11.20
2018-04-11T01:38:04.934Z,11.20
2018-04-11T01:39:05.001Z,11.20
2018-04-11T01:40:05.503Z,11.10
2018-04-11T01:41:05.094Z,11.10
2018-04-11T01:42:04.710Z,11.10
2018-04-11T01:43:05.544Z,11.10
2018-04-11T01:44:04.698Z,11.00
2018-04-11T01:45:05.614Z,11.00
2018-04-11T01:46:05.271Z,11.00
2018-04-11T01:47:05.174Z,11.00
2018-04-11T01:48:05.088Z,11.00
2018-04-11T01:49:05.164Z,10.90
2018-04-11T01:50:04.853Z,10.90
2018-04-11T01:51:04.859Z,10.90
2018-04-11T01:52:04.892Z,10.90
2018-04-11T01:53:04.691Z,10.90
2018-04-11T01:54:05.141Z,10.80
2018-04-11T01:55:05.598Z,10.80
2018-04-11T01:56:04.854Z,10.80
2018-04-11T01:57:05.634Z,10.80
2018-04-11T01:58:05.521Z,10.80
2018-04-11T01:59:04.828Z,10.80
2018-04-11T02:00:05.538Z,10.80
2018-04-11T02:01:04.978Z,10.80
2018-04-11T02:02:05.530Z,10.80
2018-04-11T02:03:05.283Z,10.80
2018-04-11T02:04:05.538Z,10.70
2018-04-11T02:05:04.945Z,10.70
2018-04-11T02:06:05.595Z,10.70
2018-04-11T02:07:05.655Z,10.70
2018-04-11T02:08:10.371Z,10.70
2018-04-11T02:09:05.405Z,10.70
2018-04-11T02:10:04.945Z,10.70
2018-04-11T02:11:05.441Z,10.70
2018-04-11T02:12:04.937Z,10.70
2018-04-11T02:13:05.408Z,10.70
2018-04-11T02:14:05.603Z,10.70
2018-04-11T02:15:04.993Z,10.70
2018-04-11T02:16:05.060Z,10.70
2018-04-11T02:17:05.274Z,10.70
2018-04-11T02:18:04.907Z,10.60
2018-04-11T02:19:05.405Z,10.60
2018-04-11T02:20:05.509Z,10.60
2018-04-11T02:21:04.907Z,10.60
2018-04-11T02:22:05.647Z,10.60
2018-04-11T02:23:04.646Z,10.60
2018-04-11T02:24:05.652Z,10.60
2018-04-11T02:25:05.512Z,10.60
2018-04-11T02:26:05.088Z,10.50
2018-04-11T02:27:04.721Z,10.50
2018-04-11T02:28:04.695Z,10.50
2018-04-11T02:29:09.815Z,10.50
2018-04-11T02:30:04.774Z,10.50
2018-04-11T02:31:04.989Z,10.50
2018-04-11T02:32:05.466Z,10.50
2018-04-11T02:33:05.072Z,10.40
2018-04-11T02:34:05.202Z,10.40
2018-04-11T02:35:05.333Z,10.40
2018-04-11T02:36:05.075Z,10.40
2018-04-11T02:37:05.597Z,10.40
2018-04-11T02:38:04.923Z,10.40
2018-04-11T02:39:05.607Z,10.40
2018-04-11T02:40:05.305Z,10.40
2018-04-11T02:41:10.280Z,10.40
2018-04-11T02:42:05.229Z,10.40
2018-04-11T02:43:05.580Z,10.40
2018-04-11T02:44:05.331Z,10.40
2018-04-11T02:45:04.906Z,10.40
2018-04-11T02:46:04.787Z,10.40
2018-04-11T02:47:04.975Z,10.40
2018-04-11T02:48:04.712Z,10.40
2018-04-11T02:49:05.367Z,10.40
2018-04-11T02:50:04.812Z,10.40
2018-04-11T02:51:05.530Z,10.40
2018-04-11T02:52:06.305Z,10.40
2018-04-11T02:53:05.600Z,10.50
2018-04-11T02:54:05.064Z,10.50
2018-04-11T02:55:05.146Z,10.50
2018-04-11T02:56:05.199Z,10.50
2018-04-11T02:57:05.362Z,10.50
2018-04-11T02:58:05.052Z,10.50
2018-04-11T02:59:05.320Z,10.50
2018-04-11T03:00:05.040Z,10.50
2018-04-11T03:01:04.953Z,10.50
2018-04-11T03:02:04.883Z,10.50
2018-04-11T03:03:05.443Z,10.50
2018-04-11T03:04:05.231Z,10.50
2018-04-11T03:05:05.617Z,10.50
2018-04-11T03:06:05.160Z,10.50
2018-04-11T03:07:04.929Z,10.50
2018-04-11T03:08:08.675Z,10.50
2018-04-11T03:09:05.060Z,10.40
2018-04-11T03:10:05.593Z,10.40
2018-04-11T03:11:04.732Z,10.40
2018-04-11T03:12:04.977Z,10.40
2018-04-11T03:13:05.517Z,10.40
2018-04-11T03:14:04.764Z,10.40
2018-04-11T03:15:05.621Z,10.40
2018-04-11T03:16:04.696Z,10.40
2018-04-11T03:17:04.910Z,10.40
2018-04-11T03:18:04.924Z,10.40
2018-04-11T03:19:05.405Z,10.40
2018-04-11T03:20:04.926Z,10.30
2018-04-11T03:21:05.607Z,10.30
2018-04-11T03:22:05.629Z,10.30
2018-04-11T03:23:04.718Z,10.30
2018-04-11T03:24:04.786Z,10.30
2018-04-11T03:25:05.662Z,10.30
2018-04-11T03:26:05.163Z,10.30
2018-04-11T03:27:05.142Z,10.30
2018-04-11T03:28:05.189Z,10.20
2018-04-11T03:29:05.117Z,10.20
2018-04-11T03:30:04.753Z,10.20
2018-04-11T03:31:05.716Z,10.20
2018-04-11T03:32:05.516Z,10.20
2018-04-11T03:33:05.362Z,10.20
2018-04-11T03:34:05.180Z,10.20
2018-04-11T03:35:05.154Z,10.20
2018-04-11T03:36:05.508Z,10.20
2018-04-11T03:37:05.186Z,10.20
2018-04-11T03:38:04.736Z,10.20
2018-04-11T03:39:05.180Z,10.20
2018-04-11T03:40:05.030Z,10.20
2018-04-11T03:41:04.698Z,10.20
2018-04-11T03:42:09.979Z,10.20
2018-04-11T03:43:04.841Z,10.20
2018-04-11T03:44:05.499Z,10.20
2018-04-11T03:45:05.143Z,10.20
2018-04-11T03:46:05.083Z,10.20
2018-04-11T03:47:05.569Z,10.20
2018-04-11T03:48:05.383Z,10.20
2018-04-11T03:49:04.974Z,10.20
2018-04-11T03:50:06.714Z,10.20
2018-04-11T03:51:05.170Z,10.20
2018-04-11T03:52:05.093Z,10.20
2018-04-11T03:53:05.076Z,10.20
2018-04-11T03:54:04.577Z,10.20
2018-04-11T03:55:04.633Z,10.20
2018-04-11T03:56:04.776Z,10.20
2018-04-11T03:57:04.747Z,10.20
2018-04-11T03:58:05.014Z,10.20
2018-04-11T03:59:04.980Z,10.30
2018-04-11T04:00:05.454Z,10.30
2018-04-11T04:01:05.454Z,10.30
2018-04-11T04:02:05.077Z,10.30
2018-04-11T04:03:05.315Z,10.30
2018-04-11T04:04:04.701Z,10.30
2018-04-11T04:05:05.172Z,10.30
2018-04-11T04:06:05.017Z,10.20
2018-04-11T04:07:04.937Z,10.20
2018-04-11T04:08:04.829Z,10.20
2018-04-11T04:09:05.385Z,10.20
2018-04-11T04:10:04.915Z,10.20
2018-04-11T04:11:05.612Z,10.20
2018-04-11T04:12:04.977Z,10.20
2018-04-11T04:13:04.786Z,10.20
2018-04-11T04:14:05.248Z,10.20
2018-04-11T04:15:05.139Z,10.20
2018-04-11T04:16:05.069Z,10.20
2018-04-11T04:17:05.468Z,10.20
2018-04-11T04:18:04.671Z,10.20
2018-04-11T04:19:04.838Z,10.20
2018-04-11T04:20:04.950Z,10.20
2018-04-11T04:21:05.627Z,10.20
2018-04-11T04:22:05.418Z,10.20
2018-04-11T04:23:05.311Z,10.20
2018-04-11T04:24:05.584Z,10.20
2018-04-11T04:25:05.424Z,10.20
2018-04-11T04:26:05.685Z,10.20
2018-04-11T04:27:05.083Z,10.20
2018-04-11T04:28:05.703Z,10.20
2018-04-11T04:29:05.230Z,10.20
2018-04-11T04:30:05.625Z,10.20
2018-04-11T04:31:05.593Z,10.30
2018-04-11T04:32:05.420Z,10.30
2018-04-11T04:33:05.416Z,10.30
2018-04-11T04:34:04.789Z,10.30
2018-04-11T04:35:05.414Z,10.30
2018-04-11T04:36:05.220Z,10.30
2018-04-11T04:37:05.586Z,10.30
2018-04-11T04:38:05.144Z,10.30
2018-04-11T04:39:04.839Z,10.30
2018-04-11T04:40:05.272Z,10.30
2018-04-11T04:41:04.996Z,10.30
2018-04-11T04:42:05.557Z,10.30
2018-04-11T04:43:05.536Z,10.30
2018-04-11T04:44:04.980Z,10.30
2018-04-11T04:45:05.380Z,10.40
2018-04-11T04:46:05.094Z,10.40
2018-04-11T04:47:05.111Z,10.40
2018-04-11T04:48:04.935Z,10.40
2018-04-11T04:49:05.119Z,10.40
2018-04-11T04:50:05.342Z,10.40
2018-04-11T04:51:04.807Z,10.40
2018-04-11T04:52:05.601Z,10.40
2018-04-11T04:53:05.603Z,10.40
2018-04-11T04:54:05.411Z,10.40
2018-04-11T04:55:05.513Z,10.40
2018-04-11T04:56:05.184Z,10.40
2018-04-11T04:57:05.173Z,10.40
2018-04-11T04:58:05.229Z,10.40
2018-04-11T04:59:04.716Z,10.40
2018-04-11T05:00:04.709Z,10.50
2018-04-11T05:01:05.131Z,10.50
2018-04-11T05:02:05.464Z,10.50
2018-04-11T05:03:05.271Z,10.50
2018-04-11T05:04:05.196Z,10.60
2018-04-11T05:05:04.901Z,10.60
2018-04-11T05:06:04.939Z,10.60
2018-04-11T05:07:04.889Z,10.60
2018-04-11T05:08:05.614Z,10.60
2018-04-11T05:09:05.343Z,10.70
2018-04-11T05:10:04.995Z,10.70
2018-04-11T05:11:04.874Z,10.70
2018-04-11T05:12:05.569Z,10.70
2018-04-11T05:13:05.104Z,10.80
2018-04-11T05:14:05.570Z,10.80
2018-04-11T05:15:05.375Z,10.80
2018-04-11T05:16:04.977Z,10.90
2018-04-11T05:17:04.762Z,10.90
2018-04-11T05:18:05.450Z,10.90
2018-04-11T05:19:05.228Z,10.90
2018-04-11T05:20:05.091Z,10.90
2018-04-11T05:21:04.923Z,11.00
2018-04-11T05:22:04.828Z,11.00
2018-04-11T05:23:04.710Z,11.00
2018-04-11T05:24:04.739Z,11.00
2018-04-11T05:25:04.836Z,11.00
2018-04-11T05:26:05.293Z,11.00
2018-04-11T05:27:05.708Z,11.00
2018-04-11T05:28:05.092Z,11.00
2018-04-11T05:29:04.991Z,11.10
2018-04-11T05:30:05.621Z,11.10
2018-04-11T05:31:04.961Z,11.10
2018-04-11T05:32:04.986Z,11.20
2018-04-11T05:33:04.934Z,11.20
2018-04-11T05:34:05.618Z,11.20
2018-04-11T05:35:04.915Z,11.30
2018-04-11T05:36:06.423Z,11.30
2018-04-11T05:37:05.600Z,11.30
2018-04-11T05:38:05.259Z,11.30
2018-04-11T05:39:05.094Z,11.40
2018-04-11T05:40:04.714Z,11.40
2018-04-11T05:41:04.996Z,11.40
2018-04-11T05:42:05.392Z,11.50
2018-04-11T05:43:05.163Z,11.50
2018-04-11T05:44:05.157Z,11.50
2018-04-11T05:45:05.139Z,11.50
2018-04-11T05:46:05.195Z,11.50
2018-04-11T05:47:04.749Z,11.60
2018-04-11T05:48:05.408Z,11.60
2018-04-11T05:49:04.943Z,11.60
2018-04-11T05:50:05.440Z,11.60
2018-04-11T05:51:05.188Z,11.60
2018-04-11T05:52:04.883Z,11.60
2018-04-11T05:53:05.420Z,11.60
2018-04-11T05:54:05.076Z,11.60
2018-04-11T05:55:04.875Z,11.70
2018-04-11T05:56:05.542Z,11.60
2018-04-11T05:57:05.209Z,11.70
2018-04-11T05:58:04.792Z,11.70
2018-04-11T05:59:05.515Z,11.70
2018-04-11T06:00:05.670Z,11.70
2018-04-11T06:01:04.841Z,11.70
2018-04-11T06:02:05.236Z,11.70
2018-04-11T06:03:05.705Z,11.70
2018-04-11T06:04:05.722Z,11.70
2018-04-11T06:05:05.419Z,11.70
2018-04-11T06:06:05.666Z,11.70
2018-04-11T06:07:04.866Z,11.70
2018-04-11T06:08:04.801Z,11.70
2018-04-11T06:09:05.656Z,11.80
2018-04-11T06:10:05.551Z,11.80
2018-04-11T06:11:04.674Z,11.80
2018-04-11T06:12:05.109Z,11.80
2018-04-11T06:13:04.695Z,11.80
2018-04-11T06:14:05.374Z,11.80
2018-04-11T06:15:05.015Z,11.80
2018-04-11T06:16:05.610Z,11.80
2018-04-11T06:17:05.353Z,11.80
2018-04-11T06:18:05.504Z,11.80
2018-04-11T06:19:05.231Z,11.80
2018-04-11T06:20:04.915Z,11.80
2018-04-11T06:21:04.807Z,11.80
2018-04-11T06:22:05.480Z,11.80
2018-04-11T06:23:05.214Z,11.80
2018-04-11T06:24:05.096Z,11.80
2018-04-11T06:25:05.791Z,11.80
2018-04-11T06:26:05.688Z,11.80
2018-04-11T06:27:05.378Z,11.80
2018-04-11T06:28:04.779Z,11.80
2018-04-11T06:29:04.685Z,11.80
2018-04-11T06:30:05.344Z,11.80
2018-04-11T06:31:04.824Z,11.80
2018-04-11T06:32:05.720Z,11.80
2018-04-11T06:33:05.192Z,11.80
2018-04-11T06:34:04.804Z,11.80
2018-04-11T06:35:04.845Z,11.80
2018-04-11T06:36:04.883Z,11.90
2018-04-11T06:37:05.433Z,11.80
2018-04-11T06:38:05.200Z,11.80
2018-04-11T06:39:05.030Z,11.80
2018-04-11T06:40:05.516Z,11.80
2018-04-11T06:41:05.703Z,11.80
2018-04-11T06:42:05.651Z,11.80
2018-04-11T06:43:05.511Z,11.80
2018-04-11T06:44:05.116Z,11.80
2018-04-11T06:45:05.313Z,11.80
2018-04-11T06:46:04.878Z,11.80
2018-04-11T06:47:05.591Z,11.80
2018-04-11T06:48:05.727Z,11.80
2018-04-11T06:49:05.714Z,11.80
2018-04-11T06:50:05.150Z,11.80
2018-04-11T06:51:05.576Z,11.80
2018-04-11T06:52:04.947Z,11.80
2018-04-11T06:53:05.019Z,11.80
2018-04-11T06:54:04.908Z,11.80
2018-04-11T06:55:04.840Z,11.80
2018-04-11T06:56:04.776Z,11.80
2018-04-11T06:57:05.444Z,11.70
2018-04-11T06:58:05.308Z,11.80
2018-04-11T06:59:04.859Z,11.80
2018-04-11T07:00:04.751Z,11.70
2018-04-11T07:01:05.535Z,11.80
2018-04-11T07:02:04.978Z,11.80
2018-04-11T07:03:05.611Z,11.80
2018-04-11T07:04:05.427Z,11.80
2018-04-11T07:05:05.208Z,11.80
2018-04-11T07:06:05.135Z,11.80
2018-04-11T07:07:05.508Z,11.80
2018-04-11T07:08:05.495Z,11.80
2018-04-11T07:09:05.458Z,11.80
2018-04-11T07:10:05.261Z,11.80
2018-04-11T07:11:05.241Z,11.80
2018-04-11T07:12:05.040Z,11.80
2018-04-11T07:13:04.889Z,11.80
2018-04-11T07:14:05.794Z,11.80
2018-04-11T07:15:05.132Z,11.80
2018-04-11T07:16:04.804Z,11.80
2018-04-11T07:17:05.082Z,11.80
2018-04-11T07:18:04.960Z,11.80
2018-04-11T07:19:05.115Z,11.80
2018-04-11T07:20:05.660Z,11.80
2018-04-11T07:21:05.401Z,11.80
2018-04-11T07:22:05.184Z,11.80
2018-04-11T07:23:05.116Z,11.80
2018-04-11T07:24:05.670Z,11.80
2018-04-11T07:25:04.768Z,11.80
2018-04-11T07:26:04.954Z,11.80
2018-04-11T07:27:05.046Z,11.80
2018-04-11T07:28:05.154Z,11.80
2018-04-11T07:29:05.671Z,11.80
2018-04-11T07:30:05.127Z,11.80
2018-04-11T07:31:05.644Z,11.80
2018-04-11T07:32:04.718Z,11.80
2018-04-11T07:33:05.701Z,11.80
2018-04-11T07:34:05.631Z,11.80
2018-04-11T07:35:05.441Z,11.80
2018-04-11T07:36:04.923Z,11.80
2018-04-11T07:37:05.085Z,11.80
2018-04-11T07:38:05.857Z,11.80
2018-04-11T07:39:04.914Z,11.80
2018-04-11T07:40:05.744Z,11.80
2018-04-11T07:41:04.924Z,11.80
2018-04-11T07:42:05.403Z,11.80
2018-04-11T07:43:05.508Z,11.80
2018-04-11T07:44:05.796Z,11.80
2018-04-11T07:45:04.691Z,11.80
2018-04-11T07:46:08.294Z,11.80
2018-04-11T07:47:10.655Z,11.80
2018-04-11T07:48:05.698Z,11.80
2018-04-11T07:49:05.223Z,11.80
2018-04-11T07:50:05.511Z,11.80
2018-04-11T07:51:05.049Z,11.80
2018-04-11T07:52:04.881Z,11.80
2018-04-11T07:53:05.248Z,11.80
2018-04-11T07:54:05.136Z,11.80
2018-04-11T07:55:04.977Z,11.80
2018-04-11T07:56:05.631Z,11.80
2018-04-11T07:57:05.428Z,11.80
2018-04-11T07:58:05.200Z,11.80
2018-04-11T07:59:05.445Z,11.80
2018-04-11T08:00:05.353Z,11.80
2018-04-11T08:01:04.873Z,11.80
2018-04-11T08:02:05.596Z,11.80
2018-04-11T08:03:06.309Z,11.80
2018-04-11T08:04:05.304Z,11.80
2018-04-11T08:05:05.674Z,11.80
2018-04-11T08:06:05.133Z,11.80
2018-04-11T08:07:05.120Z,11.80
2018-04-11T08:08:05.642Z,11.80
2018-04-11T08:09:04.805Z,11.80
2018-04-11T08:10:05.420Z,11.80
2018-04-11T08:11:05.606Z,11.80
2018-04-11T08:12:04.965Z,11.80
2018-04-11T08:13:05.723Z,11.80
2018-04-11T08:14:05.670Z,11.80
2018-04-11T08:15:04.750Z,11.80
2018-04-11T08:16:04.979Z,11.80
2018-04-11T08:17:04.764Z,11.80
2018-04-11T08:18:05.307Z,11.80
2018-04-11T08:19:05.265Z,11.80
2018-04-11T08:20:05.388Z,11.80
2018-04-11T08:21:05.103Z,11.80
2018-04-11T08:22:04.995Z,11.80
2018-04-11T08:23:05.612Z,11.80
2018-04-11T08:24:05.295Z,11.90
2018-04-11T08:25:04.868Z,11.90
2018-04-11T08:26:05.610Z,11.90
2018-04-11T08:27:05.578Z,11.90
2018-04-11T08:28:05.028Z,11.90
2018-04-11T08:29:05.223Z,11.90
2018-04-11T08:30:05.103Z,11.90
2018-04-11T08:31:04.889Z,11.90
2018-04-11T08:32:05.121Z,11.90
2018-04-11T08:33:04.670Z,11.90
2018-04-11T08:34:05.694Z,11.90
2018-04-11T08:35:05.015Z,11.90
2018-04-11T08:36:05.553Z,11.90
2018-04-11T08:37:05.689Z,11.90
2018-04-11T08:38:04.782Z,11.90
2018-04-11T08:39:05.020Z,11.90
2018-04-11T08:40:09.990Z,11.90
2018-04-11T08:41:05.226Z,11.90
2018-04-11T08:42:05.250Z,12.00
2018-04-11T08:43:05.491Z,12.00
2018-04-11T08:44:05.665Z,11.90
2018-04-11T08:45:05.417Z,12.00
2018-04-11T08:46:04.963Z,12.00
2018-04-11T08:47:04.756Z,12.00
2018-04-11T08:48:05.669Z,11.90
2018-04-11T08:49:04.746Z,11.90
2018-04-11T08:50:05.045Z,11.90
2018-04-11T08:51:04.762Z,11.90
2018-04-11T08:52:05.453Z,11.90
2018-04-11T08:53:05.213Z,11.90
2018-04-11T08:54:04.851Z,11.90
2018-04-11T08:55:05.372Z,11.90
2018-04-11T08:56:05.480Z,11.90
2018-04-11T08:57:04.876Z,11.90
2018-04-11T08:58:05.337Z,11.90
2018-04-11T08:59:05.041Z,11.90
2018-04-11T09:00:05.211Z,11.90
2018-04-11T09:01:05.491Z,11.90
2018-04-11T09:02:05.307Z,11.90
2018-04-11T09:03:05.333Z,11.90
2018-04-11T09:04:04.864Z,11.90
2018-04-11T09:05:04.846Z,11.80
2018-04-11T09:06:05.423Z,11.80
2018-04-11T09:07:05.228Z,11.80
2018-04-11T09:08:05.475Z,11.80
2018-04-11T09:09:04.849Z,11.80
2018-04-11T09:10:05.122Z,11.80
2018-04-11T09:11:04.676Z,11.80
2018-04-11T09:12:05.046Z,11.70
2018-04-11T09:13:04.923Z,11.70
2018-04-11T09:14:05.175Z,11.70
2018-04-11T09:15:05.996Z,11.70
2018-04-11T09:16:05.419Z,11.80
2018-04-11T09:17:04.825Z,11.80
2018-04-11T09:18:05.601Z,11.80
2018-04-11T09:19:04.737Z,11.80
2018-04-11T09:20:05.271Z,11.80
2018-04-11T09:21:05.382Z,11.90
2018-04-11T09:22:05.520Z,11.90
2018-04-11T09:23:05.401Z,12.00
2018-04-11T09:24:05.194Z,12.00
2018-04-11T09:25:05.266Z,12.10
2018-04-11T09:26:04.981Z,12.20
2018-04-11T09:27:05.125Z,12.20
2018-04-11T09:28:05.019Z,12.30
2018-04-11T09:29:05.807Z,12.40
2018-04-11T09:30:04.716Z,12.50
2018-04-11T09:31:05.352Z,12.70
2018-04-11T09:32:05.068Z,12.70
2018-04-11T09:33:05.503Z,12.90
2018-04-11T09:34:05.149Z,12.90
2018-04-11T09:35:05.303Z,13.00
2018-04-11T09:36:05.563Z,13.10
2018-04-11T09:37:04.848Z,13.20
2018-04-11T09:38:05.514Z,13.30
2018-04-11T09:39:05.612Z,13.40
2018-04-11T09:40:05.102Z,13.50
2018-04-11T09:41:05.201Z,13.60
2018-04-11T09:42:04.738Z,13.80
2018-04-11T09:43:05.418Z,13.90
2018-04-11T09:44:05.396Z,14.00
2018-04-11T09:45:05.549Z,14.10
2018-04-11T09:46:05.274Z,14.20
2018-04-11T09:47:04.977Z,14.30
2018-04-11T09:48:04.855Z,14.40
2018-04-11T09:49:04.689Z,14.50
2018-04-11T09:50:05.548Z,14.50
2018-04-11T09:51:05.381Z,14.60
2018-04-11T09:52:05.147Z,14.60
2018-04-11T09:53:05.484Z,14.60
2018-04-11T09:54:05.393Z,14.70
2018-04-11T09:55:05.230Z,14.70
2018-04-11T09:56:04.779Z,14.70
2018-04-11T09:57:04.971Z,14.80
2018-04-11T09:58:04.873Z,14.80
2018-04-11T09:59:04.902Z,14.90
2018-04-11T10:00:05.511Z,14.90
2018-04-11T10:01:04.628Z,14.90
2018-04-11T10:02:05.574Z,14.90
2018-04-11T10:03:05.505Z,15.00
2018-04-11T10:04:05.364Z,15.00
2018-04-11T10:05:05.155Z,15.00
2018-04-11T10:06:04.811Z,15.00
2018-04-11T10:07:05.451Z,15.10
2018-04-11T10:08:05.171Z,15.10
2018-04-11T10:09:04.782Z,15.20
2018-04-11T10:10:05.612Z,15.20
2018-04-11T10:11:05.345Z,15.30
2018-04-11T10:12:04.981Z,15.40
2018-04-11T10:13:05.789Z,15.50
2018-04-11T10:14:05.528Z,15.60
2018-04-11T10:15:05.312Z,15.70
2018-04-11T10:16:05.679Z,15.70
2018-04-11T10:17:05.490Z,15.80
2018-04-11T10:18:05.481Z,15.80
2018-04-11T10:19:04.880Z,15.90
2018-04-11T10:20:05.131Z,16.00
2018-04-11T10:22:04.949Z,16.10
2018-04-11T10:23:05.290Z,16.10
2018-04-11T10:24:05.032Z,16.20
2018-04-11T10:25:04.855Z,16.20
2018-04-11T10:26:05.428Z,16.30
2018-04-11T10:27:05.035Z,16.30
2018-04-11T10:28:04.753Z,16.30
2018-04-11T10:29:05.377Z,16.40
2018-04-11T10:30:05.272Z,16.40
2018-04-11T10:31:05.621Z,16.40
2018-04-11T10:32:04.687Z,16.40
2018-04-11T10:33:04.756Z,16.40
2018-04-11T10:34:05.324Z,16.40
2018-04-11T10:35:05.120Z,16.40
2018-04-11T10:36:04.922Z,16.40
2018-04-11T10:37:04.704Z,16.40
2018-04-11T10:38:04.979Z,16.40
2018-04-11T10:39:05.114Z,16.40
2018-04-11T10:40:04.813Z,16.40
2018-04-11T10:41:04.831Z,16.40
2018-04-11T10:42:05.565Z,16.40
2018-04-11T10:43:05.217Z,16.40
2018-04-11T10:44:05.385Z,16.40
2018-04-11T10:45:05.672Z,16.40
2018-04-11T10:46:05.461Z,16.30
2018-04-11T10:47:05.022Z,16.30
2018-04-11T10:48:04.929Z,16.30
2018-04-11T10:49:04.897Z,16.30
2018-04-11T10:50:05.710Z,16.30
2018-04-11T10:51:05.634Z,16.30
2018-04-11T10:52:05.713Z,16.30
2018-04-11T10:53:04.710Z,16.30
2018-04-11T10:54:04.655Z,16.30
2018-04-11T10:55:04.787Z,16.30
2018-04-11T10:56:05.483Z,16.20
2018-04-11T10:57:04.818Z,16.20
2018-04-11T10:58:05.433Z,16.20
2018-04-11T10:59:05.734Z,16.10
2018-04-11T11:00:05.634Z,16.10
2018-04-11T11:01:05.217Z,16.10
2018-04-11T11:02:04.949Z,16.00
2018-04-11T11:03:05.669Z,16.00
2018-04-11T11:04:05.123Z,16.00
2018-04-11T11:05:05.554Z,16.00
2018-04-11T11:06:05.178Z,16.00
2018-04-11T11:07:05.070Z,16.00
2018-04-11T11:08:05.177Z,16.00
2018-04-11T11:09:05.615Z,16.00
2018-04-11T11:10:05.096Z,16.00
2018-04-11T11:11:04.890Z,16.00
2018-04-11T11:12:05.365Z,16.00
2018-04-11T11:13:05.055Z,16.00
2018-04-11T11:14:04.800Z,15.90
2018-04-11T11:15:05.356Z,15.90
2018-04-11T11:16:05.301Z,15.90
2018-04-11T11:17:05.135Z,15.90
2018-04-11T11:18:04.888Z,15.90
2018-04-11T11:19:05.205Z,15.90
2018-04-11T11:20:05.294Z,16.00
2018-04-11T11:21:05.463Z,16.00
2018-04-11T11:22:05.160Z,16.00
2018-04-11T11:23:04.799Z,15.90
2018-04-11T11:24:05.665Z,15.90
2018-04-11T11:25:05.476Z,15.90
2018-04-11T11:26:05.186Z,15.90
2018-04-11T11:27:05.120Z,15.90
2018-04-11T11:28:05.678Z,15.90
2018-04-11T11:29:10.471Z,15.90
2018-04-11T11:30:04.957Z,15.90
2018-04-11T11:31:05.607Z,15.90
2018-04-11T11:32:05.426Z,15.90
2018-04-11T11:33:05.597Z,15.90
2018-04-11T11:34:05.320Z,15.90
2018-04-11T11:35:04.831Z,15.90
2018-04-11T11:36:05.436Z,15.90
2018-04-11T11:37:05.614Z,15.90
2018-04-11T11:38:05.530Z,15.90
2018-04-11T11:39:05.169Z,15.90
2018-04-11T11:40:05.120Z,15.90
2018-04-11T11:41:05.505Z,15.90
2018-04-11T11:42:04.944Z,15.90
2018-04-11T11:43:05.182Z,15.80
2018-04-11T11:44:04.826Z,15.90
2018-04-11T11:45:04.915Z,15.80
2018-04-11T11:46:05.624Z,15.80
2018-04-11T11:47:04.704Z,15.80
2018-04-11T11:48:05.452Z,15.80
2018-04-11T11:49:05.195Z,15.80
2018-04-11T11:50:04.961Z,15.80
2018-04-11T11:51:05.415Z,15.80
2018-04-11T11:52:05.709Z,15.80
2018-04-11T11:53:04.774Z,15.80
2018-04-11T11:54:05.336Z,15.80
2018-04-11T11:55:04.837Z,15.80
2018-04-11T11:56:04.859Z,15.80
2018-04-11T11:57:05.589Z,15.80
2018-04-11T11:58:05.119Z,15.80
2018-04-11T11:59:04.864Z,15.80
2018-04-11T12:00:05.647Z,15.80
2018-04-11T12:01:05.315Z,15.80
2018-04-11T12:02:05.091Z,15.80
2018-04-11T12:03:05.910Z,15.80
2018-04-11T12:04:05.411Z,15.80
2018-04-11T12:05:05.546Z,15.80
2018-04-11T12:06:05.388Z,15.80
2018-04-11T12:07:05.122Z,15.80
2018-04-11T12:08:04.876Z,15.80
2018-04-11T12:09:05.015Z,15.80
2018-04-11T12:10:05.520Z,15.80
2018-04-11T12:11:05.048Z,15.70
2018-04-11T12:12:04.885Z,15.70
2018-04-11T12:13:05.185Z,15.70
2018-04-11T12:14:05.270Z,15.70
2018-04-11T12:15:05.507Z,15.80
2018-04-11T12:16:04.672Z,15.80
2018-04-11T12:17:05.372Z,15.80
2018-04-11T12:18:05.094Z,15.80
2018-04-11T12:19:05.717Z,15.80
2018-04-11T12:20:05.248Z,15.80
2018-04-11T12:21:05.210Z,15.80
2018-04-11T12:22:05.108Z,15.80
2018-04-11T12:23:05.395Z,15.80
2018-04-11T12:24:05.098Z,15.80
2018-04-11T12:25:04.781Z,15.80
2018-04-11T12:26:05.756Z,15.80
2018-04-11T12:27:05.241Z,15.80
2018-04-11T12:28:04.923Z,15.80
2018-04-11T12:29:05.037Z,15.90
2018-04-11T12:30:05.600Z,15.80
2018-04-11T12:31:05.136Z,15.90
2018-04-11T12:32:04.956Z,15.90
2018-04-11T12:33:05.087Z,15.90
2018-04-11T12:34:05.546Z,15.90
2018-04-11T12:35:10.545Z,15.90
2018-04-11T12:36:05.554Z,15.90
2018-04-11T12:37:05.131Z,15.90
2018-04-11T12:38:04.851Z,15.90
2018-04-11T12:39:05.289Z,15.90
2018-04-11T12:40:05.484Z,15.90
2018-04-11T12:41:05.801Z,15.90
2018-04-11T12:42:05.605Z,15.90
2018-04-11T12:43:05.657Z,15.90
2018-04-11T12:44:05.598Z,15.90
2018-04-11T12:45:05.669Z,15.90
2018-04-11T12:46:05.393Z,15.90
2018-04-11T12:47:10.632Z,15.90
2018-04-11T12:48:05.320Z,16.00
2018-04-11T12:49:05.249Z,16.00
2018-04-11T12:50:04.672Z,16.00
2018-04-11T12:51:05.401Z,16.00
2018-04-11T12:52:05.333Z,16.10
2018-04-11T12:53:05.685Z,16.10